Time;durP1;ratioP1;P1;durP2;ratioP2;P2;SDS_P1;SDS_P2;PMS_P1;PMS_P2;Temp;Humidity;BMP_temperature;BMP_pressure;BME280_temperature;BME280_humidity;BME280_pressure;Samples;Min_cycle;Max_cycle;Signal;HPM_P1;HPM_P2
2023/09/03 00:02:22;;;;;;;;;;;;;;;22.08;100.00;98531.88;5063109;28;19958;-78
2023/09/03 00:04:49;;;;;;;;;;;;;;;22.10;100.00;98537.03;5061888;28;20328;-79
2023/09/03 00:07:15;;;;;;;;;;;;;;;22.12;100.00;98532.03;5066087;28;19920;-78
2023/09/03 00:09:42;;;;;;;;;;;;;;;22.08;100.00;98525.63;5066227;28;19960;-78
2023/09/03 00:12:08;;;;;;;;;;;;;;;21.96;100.00;98523.59;5084950;28;19955;-76
2023/09/03 00:14:36;;;;;;;;;;;;;;;21.71;100.00;98532.53;5062066;28;19964;-76
2023/09/03 00:17:03;;;;;;;;;;;;;;;21.66;100.00;98529.97;5056559;28;19959;-77
2023/09/03 00:19:29;;;;;;;;;;;;;;;21.84;100.00;98534.28;5083332;28;19947;-77
2023/09/03 00:21:55;;;;;;;;;;;;;;;21.83;100.00;98535.41;5099417;28;19931;-78
2023/09/03 00:24:22;;;;;;;;;;;;;;;21.84;100.00;98540.53;5064697;28;19947;-77
2023/09/03 00:26:49;;;;;;;;;;;;;;;21.87;100.00;98544.53;5082090;28;19925;-77
2023/09/03 00:29:15;;;;;;;;;;;;;;;21.90;100.00;98535.75;5063011;28;19924;-77
2023/09/03 00:31:43;;;;;;;;;;;;;;;21.92;100.00;98541.66;5064524;28;19924;-77
2023/09/03 00:34:09;;;;;;;;;;;;;;;21.93;100.00;98538.63;5081768;28;19924;-77
2023/09/03 00:36:35;;;;;;;;;;;;;;;21.94;100.00;98542.16;5060856;28;19971;-76
2023/09/03 00:39:02;;;;;;;;;;;;;;;21.94;100.00;98532.06;5079324;28;19955;-77
2023/09/03 00:41:29;;;;;;;;;;;;;;;21.95;100.00;98520.06;5082067;28;19924;-75
2023/09/03 00:43:55;;;;;;;;;;;;;;;21.96;100.00;98520.88;5082520;28;19927;-77
2023/09/03 00:46:22;;;;;;;;;;;;;;;21.94;100.00;98518.44;5071160;28;19966;-78
2023/09/03 00:48:50;;;;;;;;;;;;;;;21.93;100.00;98527.75;5078937;28;19925;-77
2023/09/03 00:51:17;;;;;;;;;;;;;;;21.93;100.00;98526.94;5080262;28;19960;-77
2023/09/03 00:53:47;;;;;;;;;;;;;;;21.91;100.00;98529.97;5082105;28;19951;-77
2023/09/03 00:56:13;;;;;;;;;;;;;;;21.91;100.00;98529.19;5062905;28;19924;-77
2023/09/03 00:58:41;;;;;;;;;;;;;;;21.82;100.00;98528.34;5060936;28;19952;-77
2023/09/03 01:01:08;;;;;;;;;;;;;;;21.77;100.00;98532.03;5079257;28;19955;-77
2023/09/03 01:03:35;;;;;;;;;;;;;;;21.82;100.00;98533.78;5064014;28;19947;-77
2023/09/03 01:06:03;;;;;;;;;;;;;;;21.81;100.00;98535.72;5081928;28;19929;-77
2023/09/03 01:08:30;;;;;;;;;;;;;;;21.80;100.00;98527.88;5078478;28;19959;-77
2023/09/03 01:11:02;;;;;;;;;;;;;;;21.80;100.00;98530.59;5078330;28;19935;-77
2023/09/03 01:13:31;;;;;;;;;;;;;;;21.80;100.00;98527.88;5064340;28;20619;-77
2023/09/03 01:15:59;;;;;;;;;;;;;;;21.81;100.00;98530.28;5074767;28;19931;-77
2023/09/03 01:18:27;;;;;;;;;;;;;;;21.81;100.00;98535.72;5055220;28;19920;-77
2023/09/03 01:21:01;;;;;;;;;;;;;;;21.81;100.00;98533.00;5082232;28;19971;-77
2023/09/03 01:23:38;;;;;;;;;;;;;;;21.82;100.00;98533.78;5060853;28;19969;-74
2023/09/03 01:26:20;;;;;;;;;;;;;;;21.81;100.00;98537.66;5060608;28;19924;-75
2023/09/03 01:28:49;;;;;;;;;;;;;;;21.82;100.00;98531.06;5078213;28;19924;-75
2023/09/03 01:31:17;;;;;;;;;;;;;;;21.77;100.00;98542.13;5079585;28;19984;-75
2023/09/03 01:33:44;;;;;;;;;;;;;;;21.69;100.00;98545.66;5081538;28;19982;-76
2023/09/03 01:36:11;;;;;;;;;;;;;;;21.48;100.00;98538.09;5080525;28;19988;-75
2023/09/03 01:38:38;;;;;;;;;;;;;;;21.37;100.00;98541.47;5078027;28;19958;-75
2023/09/03 01:41:04;;;;;;;;;;;;;;;21.34;100.00;98542.91;5060146;28;20066;-75
2023/09/03 01:43:31;;;;;;;;;;;;;;;21.11;100.00;98552.28;5069711;28;19929;-75
2023/09/03 01:46:01;;;;;;;;;;;;;;;21.24;100.00;98548.63;5069634;28;19936;-75
2023/09/03 01:48:32;;;;;;;;;;;;;;;21.34;100.00;98550.25;5077675;28;19925;-75
2023/09/03 01:51:02;;;;;;;;;;;;;;;21.16;100.00;98541.28;5077994;28;19975;-75
2023/09/03 01:53:35;;;;;;;;;;;;;;;21.09;100.00;98548.28;5081145;28;19924;-75
2023/09/03 01:56:03;;;;;;;;;;;;;;;21.03;100.00;98542.16;5081137;28;19928;-75
2023/09/03 01:58:31;;;;;;;;;;;;;;;21.28;100.00;98544.19;5059907;28;19947;-75
2023/09/03 02:01:00;;;;;;;;;;;;;;;21.39;100.00;98550.88;5077728;28;19991;-75
2023/09/03 02:03:27;;;;;;;;;;;;;;;21.46;100.00;98556.66;5080799;28;19931;-75
2023/09/03 02:05:54;;;;;;;;;;;;;;;21.49;100.00;98561.47;5081180;28;19924;-75
2023/09/03 02:08:20;;;;;;;;;;;;;;;21.46;100.00;98564.00;5061568;28;19928;-76
2023/09/03 02:10:47;;;;;;;;;;;;;;;21.46;100.00;98566.72;5059826;28;19925;-76
2023/09/03 02:13:13;;;;;;;;;;;;;;;21.43;100.00;98556.50;5078846;28;19952;-76
2023/09/03 02:15:40;;;;;;;;;;;;;;;21.49;100.00;98552.50;5076289;28;19924;-75
2023/09/03 02:18:07;;;;;;;;;;;;;;;21.51;100.00;98556.50;5077968;28;19924;-75
2023/09/03 02:20:34;;;;;;;;;;;;;;;21.50;100.00;98557.63;5079029;28;19925;-76
2023/09/03 02:23:00;;;;;;;;;;;;;;;21.48;100.00;98557.13;5064165;28;19925;-76
2023/09/03 02:25:27;;;;;;;;;;;;;;;21.42;100.00;98569.28;5084971;28;19925;-76
2023/09/03 02:27:53;;;;;;;;;;;;;;;21.39;100.00;98567.19;5067316;28;19928;-76
2023/09/03 02:30:20;;;;;;;;;;;;;;;21.38;100.00;98557.47;5083145;28;19924;-76
2023/09/03 02:32:47;;;;;;;;;;;;;;;21.39;100.00;98552.81;5081611;28;19947;-76
2023/09/03 02:35:15;;;;;;;;;;;;;;;21.41;100.00;98558.75;5082612;28;19928;-76
2023/09/03 02:37:41;;;;;;;;;;;;;;;21.41;100.00;98553.31;5084839;28;19924;-76
2023/09/03 02:40:08;;;;;;;;;;;;;;;21.39;100.00;98553.59;5084419;28;19924;-76
2023/09/03 02:42:34;;;;;;;;;;;;;;;21.39;100.00;98569.91;5081134;28;19925;-76
2023/09/03 02:45:01;;;;;;;;;;;;;;;21.16;100.00;98556.78;5063319;28;19920;-76
2023/09/03 02:47:27;;;;;;;;;;;;;;;21.16;100.00;98563.00;5076245;28;20361;-76
2023/09/03 02:49:54;;;;;;;;;;;;;;;21.05;100.00;98567.09;5084821;28;19928;-76
2023/09/03 02:52:21;;;;;;;;;;;;;;;21.10;100.00;98563.47;5065008;28;19928;-76
2023/09/03 02:54:48;;;;;;;;;;;;;;;21.17;100.00;98570.00;5081207;28;19928;-76
2023/09/03 02:57:14;;;;;;;;;;;;;;;21.24;100.00;98575.00;5082338;28;20631;-76
2023/09/03 02:59:42;;;;;;;;;;;;;;;21.23;100.00;98568.75;5084886;28;19925;-76
2023/09/03 03:02:09;;;;;;;;;;;;;;;21.28;100.00;98570.53;5066386;28;19981;-76
2023/09/03 03:04:35;;;;;;;;;;;;;;;21.30;100.00;98563.66;5064032;28;19925;-76
2023/09/03 03:07:02;;;;;;;;;;;;;;;21.28;100.00;98565.09;5082133;28;19920;-76
2023/09/03 03:09:30;;;;;;;;;;;;;;;21.30;100.00;98566.38;5066617;28;19952;-76
2023/09/03 03:11:56;;;;;;;;;;;;;;;21.31;100.00;98565.28;5084301;28;19920;-75
2023/09/03 03:14:22;;;;;;;;;;;;;;;21.29;100.00;98564.78;5064222;28;19925;-74
2023/09/03 03:16:49;;;;;;;;;;;;;;;21.30;100.00;98568.28;5072096;28;19948;-74
2023/09/03 03:19:15;;;;;;;;;;;;;;;21.29;100.00;98567.50;5082001;28;20646;-74
2023/09/03 03:21:41;;;;;;;;;;;;;;;21.27;100.00;98569.72;5084279;28;19966;-74
2023/09/03 03:24:08;;;;;;;;;;;;;;;21.28;100.00;98565.91;5083697;28;19925;-75
2023/09/03 03:26:37;;;;;;;;;;;;;;;21.27;100.00;98569.72;5062938;28;19935;-76
2023/09/03 03:29:03;;;;;;;;;;;;;;;21.25;100.00;98563.81;5080466;28;19992;-76
2023/09/03 03:31:30;;;;;;;;;;;;;;;21.26;100.00;98570.84;5065810;28;19920;-76
2023/09/03 03:33:56;;;;;;;;;;;;;;;21.17;100.00;98567.31;5065235;28;19931;-76
2023/09/03 03:36:22;;;;;;;;;;;;;;;21.16;100.00;98567.63;5063358;28;19924;-76
2023/09/03 03:38:49;;;;;;;;;;;;;;;21.17;100.00;98574.69;5080345;28;19975;-75
2023/09/03 03:41:17;;;;;;;;;;;;;;;21.17;100.00;98572.72;5063869;28;19975;-75
2023/09/03 03:43:46;;;;;;;;;;;;;;;21.20;100.00;98576.75;5083303;28;19938;-75
2023/09/03 03:46:13;;;;;;;;;;;;;;;21.10;100.00;98579.75;5056328;28;19932;-75
2023/09/03 03:48:40;;;;;;;;;;;;;;;20.93;100.00;98570.41;5062098;28;19931;-75
2023/09/03 03:51:06;;;;;;;;;;;;;;;20.92;100.00;98574.22;5062256;28;20344;-75
2023/09/03 03:53:33;;;;;;;;;;;;;;;21.02;100.00;98576.66;5065330;28;19984;-75
2023/09/03 03:55:59;;;;;;;;;;;;;;;21.07;100.00;98583.88;5065584;28;19935;-75
2023/09/03 03:58:26;;;;;;;;;;;;;;;21.11;100.00;98576.72;5062319;28;19929;-75
2023/09/03 04:00:54;;;;;;;;;;;;;;;21.12;100.00;98581.03;5079676;28;19985;-75
2023/09/03 04:03:20;;;;;;;;;;;;;;;20.90;100.00;98592.75;5063951;28;19939;-75
2023/09/03 04:05:46;;;;;;;;;;;;;;;20.91;100.00;98605.22;5083466;28;19924;-75
2023/09/03 04:08:13;;;;;;;;;;;;;;;20.85;100.00;98603.75;5081865;28;19924;-75
2023/09/03 04:10:39;;;;;;;;;;;;;;;20.66;100.00;98616.75;5079603;28;19964;-75
2023/09/03 04:13:05;;;;;;;;;;;;;;;20.52;100.00;98612.53;5079456;28;19955;-75
2023/09/03 04:15:32;;;;;;;;;;;;;;;20.76;100.00;98618.41;5079250;28;19959;-75
2023/09/03 04:18:00;;;;;;;;;;;;;;;20.83;100.00;98624.16;5078554;28;19947;-75
2023/09/03 04:20:26;;;;;;;;;;;;;;;20.89;100.00;98617.50;5062045;28;19971;-75
2023/09/03 04:22:53;;;;;;;;;;;;;;;20.66;100.00;98624.09;5078835;28;19974;-75
2023/09/03 04:25:20;;;;;;;;;;;;;;;20.52;100.00;98628.81;5081267;28;19932;-75
2023/09/03 04:27:46;;;;;;;;;;;;;;;20.65;100.00;98627.91;5083291;28;19936;-75
2023/09/03 04:30:13;;;;;;;;;;;;;;;20.72;100.00;98620.13;5082245;28;19924;-75
2023/09/03 04:32:40;;;;;;;;;;;;;;;20.81;100.00;98620.97;5079699;28;19925;-75
2023/09/03 04:35:08;;;;;;;;;;;;;;;20.84;100.00;98621.16;5079741;28;19925;-75
2023/09/03 04:37:35;;;;;;;;;;;;;;;20.86;100.00;98624.34;5065514;28;19920;-76
2023/09/03 04:40:01;;;;;;;;;;;;;;;20.86;100.00;98623.53;5082621;28;19924;-76
2023/09/03 04:42:27;;;;;;;;;;;;;;;20.89;100.00;98628.34;5079285;28;19995;-76
2023/09/03 04:44:54;;;;;;;;;;;;;;;20.90;100.00;98628.06;5078164;28;19932;-77
2023/09/03 04:47:20;;;;;;;;;;;;;;;20.91;100.00;98626.94;5072704;28;19960;-76
2023/09/03 04:49:47;;;;;;;;;;;;;;;20.90;100.00;98628.06;5082375;28;19963;-76
2023/09/03 04:52:14;;;;;;;;;;;;;;;20.84;100.00;98632.00;5081311;28;19932;-77
2023/09/03 04:54:41;;;;;;;;;;;;;;;20.76;100.00;98629.25;5078833;28;19925;-75
2023/09/03 04:57:08;;;;;;;;;;;;;;;20.79;100.00;98631.34;5060982;28;19925;-74
2023/09/03 04:59:34;;;;;;;;;;;;;;;20.82;100.00;98628.00;5064184;28;19931;-76
2023/09/03 05:02:00;;;;;;;;;;;;;;;20.79;100.00;98632.16;5082306;28;19925;-76
2023/09/03 05:04:27;;;;;;;;;;;;;;;20.85;100.00;98643.69;5061202;28;20011;-75
2023/09/03 05:06:53;;;;;;;;;;;;;;;20.76;100.00;98645.56;5077745;28;19939;-75
2023/09/03 05:09:21;;;;;;;;;;;;;;;20.81;100.00;98640.78;5062916;28;19925;-75
2023/09/03 05:11:47;;;;;;;;;;;;;;;20.85;100.00;98646.41;5064177;28;19931;-75
2023/09/03 05:14:14;;;;;;;;;;;;;;;20.88;100.00;98653.91;5062928;28;19982;-76
2023/09/03 05:16:40;;;;;;;;;;;;;;;20.87;100.00;98652.31;5070039;28;19925;-76
2023/09/03 05:19:07;;;;;;;;;;;;;;;20.87;100.00;98660.44;5060627;28;19924;-75
2023/09/03 05:21:33;;;;;;;;;;;;;;;20.88;100.00;98654.72;5078275;28;19946;-75
2023/09/03 05:23:59;;;;;;;;;;;;;;;20.89;100.00;98650.06;5060428;28;19932;-76
2023/09/03 05:26:27;;;;;;;;;;;;;;;20.90;100.00;98648.97;5063239;28;19928;-74
2023/09/03 05:28:53;;;;;;;;;;;;;;;20.86;100.00;98647.97;5081656;28;19928;-75
2023/09/03 05:31:20;;;;;;;;;;;;;;;20.85;100.00;98644.50;5062119;28;19963;-75
2023/09/03 05:33:46;;;;;;;;;;;;;;;20.88;100.00;98648.50;5059622;28;19924;-75
2023/09/03 05:36:12;;;;;;;;;;;;;;;20.92;100.00;98646.75;5061518;28;20602;-75
2023/09/03 05:38:42;;;;;;;;;;;;;;;20.96;100.00;98650.44;5064027;28;19925;-75
2023/09/03 05:41:09;;;;;;;;;;;;;;;20.94;100.00;98648.03;5081044;28;19924;-75
2023/09/03 05:43:37;;;;;;;;;;;;;;;20.72;100.00;98647.28;5078004;28;19935;-75
2023/09/03 05:46:04;;;;;;;;;;;;;;;20.72;100.00;98655.41;5077162;28;19947;-75
2023/09/03 05:48:30;;;;;;;;;;;;;;;20.75;100.00;98646.66;5069863;28;19924;-75
2023/09/03 05:50:59;;;;;;;;;;;;;;;20.70;100.00;98653.03;5069706;28;20437;-75
2023/09/03 05:53:25;;;;;;;;;;;;;;;20.58;100.00;98652.00;5059977;28;19924;-75
2023/09/03 05:55:51;;;;;;;;;;;;;;;20.48;100.00;98660.38;5069604;28;19925;-75
2023/09/03 05:58:18;;;;;;;;;;;;;;;20.57;100.00;98669.38;5069934;28;19932;-75
2023/09/03 06:00:45;;;;;;;;;;;;;;;20.59;100.00;98678.00;5069699;28;19956;-75
2023/09/03 06:03:12;;;;;;;;;;;;;;;20.67;100.00;98680.00;5078741;28;19949;-75
2023/09/03 06:05:38;;;;;;;;;;;;;;;20.52;100.00;98686.56;5063496;28;19951;-75
2023/09/03 06:08:05;;;;;;;;;;;;;;;20.59;100.00;98689.66;5081266;28;19989;-75
2023/09/03 06:10:31;;;;;;;;;;;;;;;20.70;100.00;98688.31;5069714;28;19925;-76
2023/09/03 06:12:58;;;;;;;;;;;;;;;20.81;100.00;98684.22;5069429;28;19925;-76
2023/09/03 06:15:25;;;;;;;;;;;;;;;20.88;100.00;98681.88;5069420;28;19935;-76
2023/09/03 06:17:53;;;;;;;;;;;;;;;20.95;100.00;98686.88;5075878;28;19925;-76
2023/09/03 06:20:20;;;;;;;;;;;;;;;20.86;100.00;98689.50;5079279;28;19921;-76
2023/09/03 06:22:46;;;;;;;;;;;;;;;20.73;100.00;98700.47;5077513;28;19924;-76
2023/09/03 06:25:12;;;;;;;;;;;;;;;20.74;100.00;98702.03;5061054;28;19932;-75
2023/09/03 06:27:39;;;;;;;;;;;;;;;20.79;100.00;98699.22;5081222;28;19928;-76
2023/09/03 06:30:06;;;;;;;;;;;;;;;20.78;100.00;98698.41;5081518;28;19924;-76
2023/09/03 06:32:32;;;;;;;;;;;;;;;20.85;100.00;98700.69;5069686;28;19979;-75
2023/09/03 06:35:00;;;;;;;;;;;;;;;20.91;100.00;98704.88;5069626;28;19925;-75
2023/09/03 06:37:26;;;;;;;;;;;;;;;20.96;100.00;98708.25;5069475;28;20024;-76
2023/09/03 06:39:53;;;;;;;;;;;;;;;21.05;100.00;98707.50;5069019;28;19940;-76
2023/09/03 06:42:19;;;;;;;;;;;;;;;21.05;100.00;98708.31;5069012;28;19924;-75
2023/09/03 06:44:45;;;;;;;;;;;;;;;21.10;100.00;98705.50;5069362;28;19956;-76
2023/09/03 06:47:12;;;;;;;;;;;;;;;21.04;100.00;98706.72;5069723;28;19983;-75
2023/09/03 06:49:38;;;;;;;;;;;;;;;21.04;100.00;98714.88;5096425;28;19920;-76
2023/09/03 06:52:06;;;;;;;;;;;;;;;20.97;100.00;98718.03;5080967;28;19925;-76
2023/09/03 06:54:33;;;;;;;;;;;;;;;20.94;100.00;98726.78;5068423;28;19921;-76
2023/09/03 06:56:59;;;;;;;;;;;;;;;21.10;100.00;98724.53;5069721;28;19920;-75
2023/09/03 06:59:26;;;;;;;;;;;;;;;21.23;100.00;98734.47;5069328;28;20574;-75
2023/09/03 07:01:52;;;;;;;;;;;;;;;21.32;100.00;98735.31;5069561;28;19932;-75
2023/09/03 07:04:19;;;;;;;;;;;;;;;21.48;100.00;98738.41;5069211;28;19936;-76
2023/09/03 07:06:45;;;;;;;;;;;;;;;21.44;100.00;98746.41;5069236;28;19920;-76
2023/09/03 07:09:13;;;;;;;;;;;;;;;21.26;100.00;98750.16;5059832;28;20346;-76
2023/09/03 07:11:39;;;;;;;;;;;;;;;21.22;100.00;98751.09;5054492;28;19924;-76
2023/09/03 07:14:05;;;;;;;;;;;;;;;21.30;100.00;98745.69;5073242;28;19932;-76
2023/09/03 07:16:35;;;;;;;;;;;;;;;21.37;100.00;98747.97;5072326;28;19924;-76
2023/09/03 07:19:01;;;;;;;;;;;;;;;21.46;100.00;98746.91;5080357;28;19924;-76
2023/09/03 07:21:29;;;;;;;;;;;;;;;21.38;100.00;98755.81;5083569;28;20035;-76
2023/09/03 07:23:57;;;;;;;;;;;;;;;21.45;100.00;98758.88;5066017;28;19955;-76
2023/09/03 07:26:44;;;;;;;;;;;;;;;21.50;100.00;98758.75;5081295;28;19971;-76
2023/09/03 07:29:13;;;;;;;;;;;;;;;21.47;100.00;98767.53;5081278;28;19924;-76
2023/09/03 07:31:40;;;;;;;;;;;;;;;21.56;100.00;98761.31;5083925;28;19996;-76
2023/09/03 07:34:08;;;;;;;;;;;;;;;21.58;100.00;98762.59;5083313;28;19947;-76
2023/09/03 07:36:34;;;;;;;;;;;;;;;21.62;100.00;98770.94;5062573;28;19932;-76
2023/09/03 07:39:01;;;;;;;;;;;;;;;21.54;100.00;98773.31;5062290;28;19925;-76
2023/09/03 07:41:28;;;;;;;;;;;;;;;21.52;100.00;98753.81;5065134;28;19996;-76
2023/09/03 07:43:55;;;;;;;;;;;;;;;21.60;100.00;98756.88;5065663;28;19928;-76
2023/09/03 07:46:21;;;;;;;;;;;;;;;21.63;100.00;98761.69;5073108;28;19978;-76
2023/09/03 07:48:48;;;;;;;;;;;;;;;21.64;100.00;98757.81;5080093;28;19925;-75
2023/09/03 07:51:16;;;;;;;;;;;;;;;21.66;100.00;98755.63;5063468;28;19925;-76
2023/09/03 07:53:43;;;;;;;;;;;;;;;21.62;100.00;98758.16;5065516;28;19935;-76
2023/09/03 07:56:09;;;;;;;;;;;;;;;21.66;100.00;98755.63;5082823;28;19954;-76
2023/09/03 07:58:38;;;;;;;;;;;;;;;21.62;100.00;98762.78;5080197;28;19933;-75
2023/09/03 08:01:04;;;;;;;;;;;;;;;21.63;100.00;98773.34;5079622;28;19931;-76
2023/09/03 08:03:34;;;;;;;;;;;;;;;21.64;100.00;98774.13;5083015;28;19924;-76
2023/09/03 08:06:01;;;;;;;;;;;;;;;21.70;100.00;98773.69;5065011;28;19931;-77
2023/09/03 08:08:28;;;;;;;;;;;;;;;21.76;100.00;98774.34;5062313;28;19940;-77
2023/09/03 08:10:57;;;;;;;;;;;;;;;21.53;100.00;98779.88;5079869;28;19928;-76
2023/09/03 08:13:24;;;;;;;;;;;;;;;21.44;100.00;98789.09;5082042;28;19939;-76
2023/09/03 08:15:52;;;;;;;;;;;;;;;21.41;100.00;98798.69;5077011;28;19925;-76
2023/09/03 08:18:21;;;;;;;;;;;;;;;21.25;100.00;98810.25;5079362;28;19924;-76
2023/09/03 08:20:49;;;;;;;;;;;;;;;21.17;100.00;98814.50;5079557;28;19946;-76
2023/09/03 08:23:16;;;;;;;;;;;;;;;21.22;100.00;98817.09;5063479;28;19929;-76
2023/09/03 08:25:58;;;;;;;;;;;;;;;21.38;100.00;98814.81;5082842;28;19956;-78
2023/09/03 08:28:24;;;;;;;;;;;;;;;21.52;100.00;98821.75;5080566;28;19946;-78
2023/09/03 08:30:52;;;;;;;;;;;;;;;21.61;100.00;98813.63;5079614;28;19925;-78
2023/09/03 08:33:18;;;;;;;;;;;;;;;21.41;100.00;98825.84;5063320;28;19953;-79
2023/09/03 08:36:00;;;;;;;;;;;;;;;21.25;100.00;98830.06;5083609;28;19925;-78
2023/09/03 08:38:27;;;;;;;;;;;;;;;21.17;100.00;98830.78;5079606;28;19951;-78
2023/09/03 08:40:53;;;;;;;;;;;;;;;21.19;100.00;98835.94;5079336;28;19928;-77
2023/09/03 08:43:21;;;;;;;;;;;;;;;21.30;100.00;98831.84;5063356;28;19984;-80
2023/09/03 08:45:50;;;;;;;;;;;;;;;21.50;100.00;98832.16;5076852;28;19979;-79
2023/09/03 08:48:18;;;;;;;;;;;;;;;21.63;100.00;98816.06;5079380;28;19967;-79
2023/09/03 08:50:45;;;;;;;;;;;;;;;21.75;100.00;98818.97;5061147;28;19963;-78
2023/09/03 08:53:12;;;;;;;;;;;;;;;21.84;100.00;98823.34;5061733;28;19924;-77
2023/09/03 08:55:39;;;;;;;;;;;;;;;21.78;100.00;98812.91;5082640;28;19924;-77
2023/09/03 08:58:05;;;;;;;;;;;;;;;21.78;100.00;98812.91;5082657;28;19988;-76
2023/09/03 09:00:32;;;;;;;;;;;;;;;21.86;100.00;98814.84;5061232;28;19960;-76
2023/09/03 09:03:00;;;;;;;;;;;;;;;21.86;100.00;98812.13;5062229;28;19924;-81
2023/09/03 09:05:28;;;;;;;;;;;;;;;21.91;100.00;98820.19;5082591;28;19928;-76
2023/09/03 09:07:55;;;;;;;;;;;;;;;22.00;100.00;98812.88;5065313;28;19926;-77
2023/09/03 09:10:23;;;;;;;;;;;;;;;22.06;100.00;98811.59;5062604;28;19924;-77
2023/09/03 09:12:52;;;;;;;;;;;;;;;22.09;100.00;98823.78;5079262;28;20580;-77
2023/09/03 09:15:18;;;;;;;;;;;;;;;22.16;100.00;98816.72;5060636;28;19954;-77
2023/09/03 09:17:48;;;;;;;;;;;;;;;21.99;100.00;98822.94;5052667;28;19931;-75
2023/09/03 09:20:15;;;;;;;;;;;;;;;22.01;100.00;98828.06;5079908;28;19924;-77
2023/09/03 09:22:44;;;;;;;;;;;;;;;22.06;100.00;98831.41;5082110;28;19925;-77
2023/09/03 09:25:22;;;;;;;;;;;;;;;21.90;100.00;98832.19;5081288;28;19935;-76
2023/09/03 09:27:49;;;;;;;;;;;;;;;22.07;100.00;98834.94;5078164;28;19980;-76
2023/09/03 09:30:19;;;;;;;;;;;;;;;22.14;100.00;98840.75;5078928;28;19927;-77
2023/09/03 09:32:45;;;;;;;;;;;;;;;22.20;100.00;98833.22;5043966;28;19998;-79
2023/09/03 09:35:22;;;;;;;;;;;;;;;22.16;100.00;98824.88;5077502;28;19926;-77
2023/09/03 09:38:05;;;;;;;;;;;;;;;22.36;100.00;98807.97;5061730;28;19949;-77
2023/09/03 09:40:37;;;;;;;;;;;;;;;22.44;100.00;98815.34;5069658;28;19932;-79
2023/09/03 09:43:20;;;;;;;;;;;;;;;22.59;100.00;98809.44;5042971;28;20019;-78
2023/09/03 09:45:48;;;;;;;;;;;;;;;22.58;100.00;98810.56;5057166;28;20015;-78
2023/09/03 09:48:14;;;;;;;;;;;;;;;22.45;100.00;98816.97;5034019;28;19921;-79
2023/09/03 09:51:00;;;;;;;;;;;;;;;22.77;100.00;98815.75;5062391;28;19998;-79
2023/09/03 09:53:28;;;;;;;;;;;;;;;22.87;100.00;98809.94;5042246;28;19925;-79
2023/09/03 09:55:59;;;;;;;;;;;;;;;23.06;100.00;98812.34;5060120;28;19932;-77
2023/09/03 09:58:34;;;;;;;;;;;;;;;23.26;100.00;98808.94;5061001;28;19925;-77
2023/09/03 10:01:01;;;;;;;;;;;;;;;23.48;100.00;98822.41;5044167;28;20066;-77
2023/09/03 10:03:40;;;;;;;;;;;;;;;23.75;100.00;98812.19;5058941;28;19965;-76
2023/09/03 10:06:07;;;;;;;;;;;;;;;23.65;100.00;98805.16;5040951;28;19929;-77
2023/09/03 10:08:35;;;;;;;;;;;;;;;23.62;100.00;98809.34;5061586;28;19925;-76
2023/09/03 10:11:01;;;;;;;;;;;;;;;23.74;100.00;98803.19;5062483;28;19932;-76
2023/09/03 10:13:29;;;;;;;;;;;;;;;23.56;100.00;98812.56;5040732;28;19925;-77
2023/09/03 10:15:56;;;;;;;;;;;;;;;23.56;100.00;98813.38;5045721;28;19929;-78
2023/09/03 10:18:24;;;;;;;;;;;;;;;23.51;100.00;98819.03;5042272;28;19920;-78
2023/09/03 10:20:50;;;;;;;;;;;;;;;23.48;100.00;98818.88;5040960;28;19956;-79
2023/09/03 10:23:19;;;;;;;;;;;;;;;23.47;100.00;98819.97;5042087;28;19925;-78
2023/09/03 10:25:47;;;;;;;;;;;;;;;23.50;100.00;98816.59;5044283;28;19984;-76
2023/09/03 10:28:20;;;;;;;;;;;;;;;23.47;100.00;98831.69;5043820;28;19924;-78
2023/09/03 10:31:15;;;;;;;;;;;;;;;23.53;100.00;98832.31;5031794;28;19936;-78
2023/09/03 10:33:41;;;;;;;;;;;;;;;23.64;100.00;98828.91;5040316;28;19925;-79
2023/09/03 10:36:11;;;;;;;;;;;;;;;23.72;100.00;98826.47;5032085;28;20568;-79
2023/09/03 10:38:38;;;;;;;;;;;;;;;23.90;100.00;98847.09;5049348;28;19926;-78
2023/09/03 10:41:19;;;;;;;;;;;;;;;23.89;100.00;98849.03;5048997;28;19971;-78
2023/09/03 10:43:46;;;;;;;;;;;;;;;24.00;100.00;98842.09;5041933;28;19926;-75
2023/09/03 10:46:13;;;;;;;;;;;;;;;24.10;100.00;98839.00;5059738;28;19961;-78
2023/09/03 10:48:39;;;;;;;;;;;;;;;24.10;100.00;98843.66;5043562;28;19925;-77
2023/09/03 10:51:06;;;;;;;;;;;;;;;24.06;100.00;98837.25;5061179;28;20398;-77
2023/09/03 10:53:36;;;;;;;;;;;;;;;24.08;100.00;98837.72;5046800;28;19975;-77
2023/09/03 10:56:06;;;;;;;;;;;;;;;24.19;100.00;98830.81;5046365;28;19965;-78
2023/09/03 10:58:34;;;;;;;;;;;;;;;24.25;100.00;98829.47;5060514;28;19932;-79
2023/09/03 11:01:18;;;;;;;;;;;;;;;24.25;100.00;98834.13;5061498;28;19948;-80
2023/09/03 11:03:46;;;;;;;;;;;;;;;24.33;100.00;98831.34;5049981;28;19921;-79
2023/09/03 11:06:17;;;;;;;;;;;;;;;24.20;100.00;98840.59;5044465;28;19949;-78
2023/09/03 11:08:44;;;;;;;;;;;;;;;24.10;100.00;98838.19;5046849;28;19989;-78
2023/09/03 11:11:11;;;;;;;;;;;;;;;24.21;100.00;98841.38;5046222;28;19994;-78
2023/09/03 11:13:39;;;;;;;;;;;;;;;24.04;100.00;98834.06;5044273;28;19980;-78
2023/09/03 11:16:06;;;;;;;;;;;;;;;24.03;100.00;98829.72;5041835;28;20402;-78
2023/09/03 11:18:32;;;;;;;;;;;;;;;24.11;100.00;98829.69;5051108;28;19925;-78
2023/09/03 11:20:59;;;;;;;;;;;;;;;24.20;100.00;98826.94;5042929;28;19952;-78
2023/09/03 11:23:27;;;;;;;;;;;;;;;24.35;100.00;98834.56;5045409;28;19961;-77
2023/09/03 11:25:54;;;;;;;;;;;;;;;24.46;100.00;98827.56;5046303;28;20456;-77
2023/09/03 11:28:20;;;;;;;;;;;;;;;24.63;100.00;98819.25;5061902;28;19925;-77
2023/09/03 11:30:48;;;;;;;;;;;;;;;24.58;100.00;98819.47;5043248;28;20411;-78
2023/09/03 11:33:24;;;;;;;;;;;;;;;24.61;100.00;98807.06;5062079;28;19925;-77
2023/09/03 11:35:53;;;;;;;;;;;;;;;24.61;100.00;98815.25;5064109;28;19955;-77
2023/09/03 11:38:19;;;;;;;;;;;;;;;24.62;100.00;98819.59;5062226;28;20286;-77
2023/09/03 11:40:46;;;;;;;;;;;;;;;24.68;100.00;98818.25;5061064;28;19925;-80
2023/09/03 11:43:13;;;;;;;;;;;;;;;24.76;100.00;98820.13;5064163;28;20398;-79
2023/09/03 11:45:40;;;;;;;;;;;;;;;24.60;100.00;98819.91;5042631;28;19963;-77
2023/09/03 11:48:08;;;;;;;;;;;;;;;24.67;100.00;98828.38;5063371;28;19924;-78
2023/09/03 11:50:36;;;;;;;;;;;;;;;24.62;100.00;98817.66;5055384;28;19932;-78
2023/09/03 11:53:05;;;;;;;;;;;;;;;24.63;100.00;98813.78;5057497;28;19971;-77
2023/09/03 11:55:34;;;;;;;;;;;;;;;24.64;100.00;98809.94;5043593;28;19975;-76
2023/09/03 11:58:02;;;;;;;;;;;;;;;24.67;100.00;98816.66;5035287;28;20561;-77
2023/09/03 12:03:11;;;;;;;;;;;;;;;24.68;100.00;98816.34;5065726;28;19932;-78
2023/09/03 12:08:19;;;;;;;;;;;;;;;24.62;100.00;98816.84;5051287;28;19948;-77
2023/09/03 12:10:47;;;;;;;;;;;;;;;24.66;100.00;98818.56;5067476;28;19939;-80
2023/09/03 12:13:14;;;;;;;;;;;;;;;24.62;100.00;98806.75;5048834;28;19925;-78
2023/09/03 12:15:40;;;;;;;;;;;;;;;24.65;100.00;98810.72;5046136;28;19925;-78
2023/09/03 12:20:51;;;;;;;;;;;;;;;24.70;100.00;98807.78;5047755;28;20012;-78
2023/09/03 12:23:19;;;;;;;;;;;;;;;24.81;100.00;98803.56;5065750;28;19921;-79
2023/09/03 12:25:46;;;;;;;;;;;;;;;24.86;100.00;98811.56;5062417;28;19929;-78
2023/09/03 12:28:13;;;;;;;;;;;;;;;24.94;100.00;98813.44;5052581;28;19915;-78
2023/09/03 12:30:56;;;;;;;;;;;;;;;24.93;100.00;98809.09;5069621;28;19956;-77
2023/09/03 12:33:22;;;;;;;;;;;;;;;24.96;100.00;98805.69;5068269;28;19924;-77
2023/09/03 12:36:19;;;;;;;;;;;;;;;24.86;100.00;98805.28;5069653;28;19925;-79
2023/09/03 12:38:53;;;;;;;;;;;;;;;24.81;100.00;98792.63;5060593;28;19957;-77
2023/09/03 12:41:19;;;;;;;;;;;;;;;24.88;100.00;98786.63;5041675;28;19925;-77
2023/09/03 12:43:46;;;;;;;;;;;;;;;24.84;100.00;98796.63;5059398;28;19925;-78
2023/09/03 12:46:13;;;;;;;;;;;;;;;24.87;100.00;98791.31;5048673;28;19925;-76
2023/09/03 12:48:39;;;;;;;;;;;;;;;24.93;100.00;98791.88;5059122;28;19925;-78